KAC965 KDEN-KTEX
Flight info
| Callsign | KAC965 |
|---|---|
| Flight time | 0h 42m |
| Altitude | 36000 |
| Route | BAYLR6 TEHRU HERRM ETL |
| Aircraft | B738/M-SDE2E3FGHIRWXY/LB1 |
Departure
| Time | 2026-04-25 17:55 |
|---|---|
| Airport | Denver International Airport (KDEN) |
Arrival
| Time | 2026-04-25 18:38 |
|---|---|
| Airport | Telluride Regional Airport (KTEX) |
| Time | Latitude | Longitude | Altitude | Speed | Heading |
|---|---|---|---|---|---|
| 2026-04-25 17:21 | 39.85932 | -104.67575 | 5385 ft | 0 kts | 185° |
| 2026-04-25 17:42 | 39.85951 | -104.67574 | 5384 ft | 4 kts | 181° |
| 2026-04-25 17:42 | 39.85977 | -104.67572 | 5385 ft | 4 kts | 195° |
| 2026-04-25 17:42 | 39.86000 | -104.67558 | 5385 ft | 4 kts | 230° |
| 2026-04-25 17:43 | 39.86009 | -104.67533 | 5385 ft | 1 kts | 270° |
| 2026-04-25 17:43 | 39.86009 | -104.67527 | 5383 ft | 0 kts | 270° |
| 2026-04-25 17:48 | 39.86010 | -104.67612 | 5385 ft | 7 kts | 270° |
| 2026-04-25 17:48 | 39.86010 | -104.67671 | 5385 ft | 7 kts | 270° |
| 2026-04-25 17:48 | 39.86011 | -104.67737 | 5385 ft | 7 kts | 270° |
| 2026-04-25 17:49 | 39.86011 | -104.67801 | 5385 ft | 7 kts | 270° |
| 2026-04-25 17:49 | 39.86012 | -104.67892 | 5385 ft | 11 kts | 271° |
| 2026-04-25 17:49 | 39.86013 | -104.67994 | 5385 ft | 11 kts | 271° |
| 2026-04-25 17:49 | 39.86023 | -104.68091 | 5383 ft | 11 kts | 284° |
| 2026-04-25 17:50 | 39.86030 | -104.68185 | 5385 ft | 10 kts | 271° |
| 2026-04-25 17:50 | 39.86031 | -104.68300 | 5376 ft | 16 kts | 271° |
| 2026-04-25 17:50 | 39.86033 | -104.68466 | 5363 ft | 10 kts | 270° |
| 2026-04-25 17:50 | 39.85982 | -104.68511 | 5364 ft | 10 kts | 184° |
| 2026-04-25 17:51 | 39.85913 | -104.68512 | 5362 ft | 10 kts | 180° |
| 2026-04-25 17:51 | 39.85847 | -104.68513 | 5364 ft | 9 kts | 180° |
| 2026-04-25 17:51 | 39.85781 | -104.68514 | 5365 ft | 9 kts | 180° |
| 2026-04-25 17:51 | 39.85718 | -104.68514 | 5366 ft | 9 kts | 180° |
| 2026-04-25 17:52 | 39.85657 | -104.68515 | 5366 ft | 9 kts | 180° |
| 2026-04-25 17:52 | 39.85636 | -104.68515 | 5369 ft | 9 kts | 180° |
| 2026-04-25 17:52 | 39.85497 | -104.68518 | 5371 ft | 16 kts | 181° |
| 2026-04-25 17:52 | 39.85386 | -104.68520 | 5371 ft | 15 kts | 181° |
| 2026-04-25 17:53 | 39.85282 | -104.68522 | 5370 ft | 15 kts | 179° |
| 2026-04-25 17:53 | 39.85206 | -104.68591 | 5366 ft | 17 kts | 266° |
| 2026-04-25 17:53 | 39.85202 | -104.68758 | 5359 ft | 20 kts | 269° |
| 2026-04-25 17:53 | 39.85199 | -104.68947 | 5353 ft | 23 kts | 269° |
| 2026-04-25 17:54 | 39.85195 | -104.69165 | 5347 ft | 25 kts | 271° |
| 2026-04-25 17:54 | 39.85201 | -104.69407 | 5341 ft | 28 kts | 271° |
| 2026-04-25 17:54 | 39.85213 | -104.69621 | 5336 ft | 20 kts | 301° |
| 2026-04-25 17:54 | 39.85345 | -104.69659 | 5336 ft | 26 kts | 1° |
| 2026-04-25 17:55 | 39.85788 | -104.69654 | 5340 ft | 100 kts | 0° |
| 2026-04-25 17:55 | 39.86707 | -104.69644 | 5334 ft | 164 kts | 0° |
| 2026-04-25 17:55 | 39.87995 | -104.69638 | 5656 ft | 196 kts | 0° |
| 2026-04-25 17:55 | 39.89401 | -104.69625 | 6348 ft | 206 kts | 1° |
| 2026-04-25 17:56 | 39.90784 | -104.69950 | 7253 ft | 208 kts | 329° |
| 2026-04-25 17:56 | 39.91767 | -104.71381 | 7543 ft | 230 kts | 292° |
| 2026-04-25 17:56 | 39.91917 | -104.73539 | 7774 ft | 251 kts | 258° |
| 2026-04-25 17:56 | 39.91093 | -104.75558 | 8225 ft | 262 kts | 226° |
| 2026-04-25 17:57 | 39.89696 | -104.77122 | 8807 ft | 266 kts | 220° |
| 2026-04-25 17:57 | 39.88238 | -104.78652 | 9363 ft | 271 kts | 220° |
| 2026-04-25 17:57 | 39.86770 | -104.80208 | 9948 ft | 272 kts | 220° |
| 2026-04-25 17:57 | 39.86296 | -104.80714 | 9991 ft | 268 kts | 220° |
| 2026-04-25 17:58 | 39.83840 | -104.83391 | 10002 ft | 289 kts | 221° |
| 2026-04-25 17:58 | 39.82298 | -104.85098 | 10009 ft | 295 kts | 221° |
| 2026-04-25 17:58 | 39.80741 | -104.86828 | 9997 ft | 293 kts | 221° |
| 2026-04-25 17:58 | 39.79192 | -104.88550 | 9994 ft | 290 kts | 221° |
| 2026-04-25 17:59 | 39.77770 | -104.90353 | 9982 ft | 286 kts | 238° |
| 2026-04-25 17:59 | 39.76995 | -104.92720 | 10090 ft | 291 kts | 255° |
| 2026-04-25 17:59 | 39.76429 | -104.95350 | 10279 ft | 314 kts | 255° |
| 2026-04-25 17:59 | 39.75820 | -104.98201 | 10471 ft | 337 kts | 255° |
| 2026-04-25 18:00 | 39.75387 | -105.00200 | 10595 ft | 352 kts | 255° |
| 2026-04-25 18:00 | 39.74413 | -105.04341 | 11168 ft | 367 kts | 250° |
| 2026-04-25 18:00 | 39.73429 | -105.07425 | 11943 ft | 368 kts | 247° |
| 2026-04-25 18:00 | 39.72384 | -105.10462 | 12714 ft | 368 kts | 246° |
| 2026-04-25 18:01 | 39.71344 | -105.13484 | 13420 ft | 369 kts | 246° |
| 2026-04-25 18:01 | 39.70307 | -105.16555 | 14115 ft | 371 kts | 247° |
| 2026-04-25 18:01 | 39.69280 | -105.19652 | 14724 ft | 375 kts | 247° |
| 2026-04-25 18:01 | 39.68248 | -105.22788 | 15299 ft | 379 kts | 247° |
| 2026-04-25 18:02 | 39.67220 | -105.25915 | 15924 ft | 380 kts | 247° |
| 2026-04-25 18:02 | 39.66172 | -105.29108 | 16530 ft | 383 kts | 248° |
| 2026-04-25 18:02 | 39.65131 | -105.32273 | 17116 ft | 386 kts | 247° |
| 2026-04-25 18:02 | 39.64065 | -105.35502 | 17681 ft | 389 kts | 247° |
| 2026-04-25 18:03 | 39.63000 | -105.38728 | 18233 ft | 391 kts | 247° |
| 2026-04-25 18:03 | 39.61921 | -105.41998 | 18760 ft | 394 kts | 248° |
| 2026-04-25 18:03 | 39.60836 | -105.45285 | 19294 ft | 397 kts | 248° |
| 2026-04-25 18:03 | 39.59758 | -105.48547 | 19837 ft | 398 kts | 248° |
| 2026-04-25 18:04 | 39.58659 | -105.51859 | 20345 ft | 401 kts | 248° |
| 2026-04-25 18:04 | 39.57548 | -105.55194 | 20824 ft | 403 kts | 248° |
| 2026-04-25 18:04 | 39.56432 | -105.58534 | 21308 ft | 405 kts | 247° |
| 2026-04-25 18:04 | 39.55311 | -105.61896 | 21770 ft | 407 kts | 248° |
| 2026-04-25 18:05 | 39.54273 | -105.65326 | 22183 ft | 409 kts | 251° |
| 2026-04-25 18:05 | 39.53323 | -105.68764 | 22631 ft | 411 kts | 251° |
| 2026-04-25 18:05 | 39.52377 | -105.72285 | 23039 ft | 413 kts | 252° |
| 2026-04-25 18:05 | 39.51437 | -105.75782 | 23462 ft | 414 kts | 252° |
| 2026-04-25 18:06 | 39.50473 | -105.79323 | 23830 ft | 416 kts | 251° |
| 2026-04-25 18:06 | 39.49497 | -105.82876 | 24189 ft | 419 kts | 251° |
| 2026-04-25 18:06 | 39.48519 | -105.86395 | 24533 ft | 421 kts | 251° |
| 2026-04-25 18:06 | 39.47526 | -105.89962 | 25034 ft | 418 kts | 251° |
| 2026-04-25 18:07 | 39.46539 | -105.93498 | 25610 ft | 414 kts | 251° |
| 2026-04-25 18:07 | 39.45571 | -105.96967 | 25956 ft | 416 kts | 251° |
| 2026-04-25 18:07 | 39.44576 | -106.00527 | 26210 ft | 419 kts | 251° |
| 2026-04-25 18:07 | 39.43591 | -106.04046 | 26525 ft | 420 kts | 251° |
| 2026-04-25 18:08 | 39.42918 | -106.06446 | 26745 ft | 421 kts | 251° |
| 2026-04-25 18:08 | 39.41590 | -106.11180 | 27121 ft | 422 kts | 251° |
| 2026-04-25 18:08 | 39.40582 | -106.14763 | 27403 ft | 424 kts | 251° |
| 2026-04-25 18:08 | 39.39910 | -106.17147 | 27592 ft | 424 kts | 251° |
| 2026-04-25 18:09 | 39.38898 | -106.20738 | 27935 ft | 424 kts | 251° |
| 2026-04-25 18:09 | 39.37564 | -106.25466 | 28559 ft | 419 kts | 251° |
| 2026-04-25 18:09 | 39.36566 | -106.28998 | 28964 ft | 417 kts | 251° |
| 2026-04-25 18:09 | 39.36226 | -106.30201 | 29107 ft | 416 kts | 251° |
| 2026-04-25 18:10 | 39.35245 | -106.33673 | 29550 ft | 413 kts | 251° |
| 2026-04-25 18:10 | 39.33926 | -106.38332 | 30079 ft | 410 kts | 251° |
| 2026-04-25 18:10 | 39.32958 | -106.41746 | 30487 ft | 407 kts | 251° |
| 2026-04-25 18:10 | 39.31982 | -106.45185 | 30752 ft | 407 kts | 252° |
| 2026-04-25 18:11 | 39.31004 | -106.48629 | 31043 ft | 407 kts | 251° |
| 2026-04-25 18:11 | 39.30030 | -106.52053 | 31409 ft | 404 kts | 251° |
| 2026-04-25 18:11 | 39.29061 | -106.55448 | 31776 ft | 402 kts | 251° |
| 2026-04-25 18:11 | 39.28107 | -106.58794 | 32080 ft | 402 kts | 252° |
| 2026-04-25 18:12 | 39.27137 | -106.62190 | 32340 ft | 400 kts | 252° |
| 2026-04-25 18:12 | 39.26174 | -106.65562 | 32662 ft | 399 kts | 252° |
| 2026-04-25 18:12 | 39.25222 | -106.68894 | 32932 ft | 398 kts | 252° |
| 2026-04-25 18:12 | 39.24247 | -106.72250 | 33278 ft | 397 kts | 250° |
| 2026-04-25 18:13 | 39.23136 | -106.75475 | 33577 ft | 396 kts | 247° |
| 2026-04-25 18:13 | 39.21915 | -106.78663 | 33898 ft | 395 kts | 246° |
| 2026-04-25 18:13 | 39.20659 | -106.81830 | 34117 ft | 395 kts | 246° |
| 2026-04-25 18:14 | 39.18171 | -106.88078 | 34611 ft | 393 kts | 246° |
| 2026-04-25 18:14 | 39.16929 | -106.91229 | 34842 ft | 393 kts | 246° |
| 2026-04-25 18:14 | 39.15691 | -106.94384 | 35067 ft | 391 kts | 246° |
| 2026-04-25 18:14 | 39.14484 | -106.97479 | 35277 ft | 391 kts | 246° |
| 2026-04-25 18:15 | 39.13264 | -107.00616 | 35444 ft | 393 kts | 246° |
| 2026-04-25 18:15 | 39.12038 | -107.03768 | 35664 ft | 391 kts | 246° |
| 2026-04-25 18:15 | 39.10820 | -107.06897 | 35910 ft | 390 kts | 246° |
| 2026-04-25 18:15 | 39.09597 | -107.10041 | 35933 ft | 393 kts | 246° |
| 2026-04-25 18:16 | 39.07141 | -107.16322 | 35973 ft | 393 kts | 246° |
| 2026-04-25 18:17 | 39.03495 | -107.25649 | 35984 ft | 387 kts | 246° |
| 2026-04-25 18:17 | 39.01073 | -107.31824 | 35980 ft | 384 kts | 246° |
| 2026-04-25 18:18 | 38.98679 | -107.37922 | 35984 ft | 383 kts | 246° |
| 2026-04-25 18:18 | 38.96276 | -107.44024 | 35988 ft | 382 kts | 246° |
| 2026-04-25 18:19 | 38.93878 | -107.50104 | 35961 ft | 384 kts | 246° |
| 2026-04-25 18:19 | 38.91461 | -107.56233 | 35955 ft | 386 kts | 246° |
| 2026-04-25 18:20 | 38.89021 | -107.62384 | 35947 ft | 387 kts | 246° |
| 2026-04-25 18:20 | 38.87778 | -107.65515 | 35604 ft | 394 kts | 246° |
| 2026-04-25 18:20 | 38.86542 | -107.68628 | 35066 ft | 395 kts | 246° |
| 2026-04-25 18:20 | 38.85293 | -107.71767 | 34477 ft | 392 kts | 246° |
| 2026-04-25 18:21 | 38.84062 | -107.74859 | 33787 ft | 392 kts | 246° |
| 2026-04-25 18:21 | 38.82820 | -107.77977 | 33192 ft | 390 kts | 246° |
| 2026-04-25 18:21 | 38.81591 | -107.81055 | 32713 ft | 385 kts | 246° |
| 2026-04-25 18:21 | 38.80370 | -107.84111 | 32238 ft | 382 kts | 246° |
| 2026-04-25 18:22 | 38.79178 | -107.87089 | 31772 ft | 378 kts | 246° |
| 2026-04-25 18:22 | 38.78382 | -107.89075 | 31462 ft | 375 kts | 246° |
| 2026-04-25 18:22 | 38.76800 | -107.93030 | 30854 ft | 369 kts | 246° |
| 2026-04-25 18:22 | 38.75649 | -107.95903 | 30415 ft | 365 kts | 246° |
| 2026-04-25 18:23 | 38.74488 | -107.98796 | 29965 ft | 362 kts | 247° |
| 2026-04-25 18:23 | 38.73336 | -108.01667 | 29515 ft | 358 kts | 247° |
| 2026-04-25 18:23 | 38.72198 | -108.04499 | 29069 ft | 355 kts | 246° |
| 2026-04-25 18:23 | 38.71081 | -108.07275 | 28613 ft | 352 kts | 246° |
| 2026-04-25 18:24 | 38.69956 | -108.10071 | 28167 ft | 349 kts | 246° |
| 2026-04-25 18:24 | 38.68862 | -108.12798 | 27718 ft | 347 kts | 246° |
| 2026-04-25 18:24 | 38.67756 | -108.15543 | 27281 ft | 345 kts | 246° |
| 2026-04-25 18:24 | 38.66662 | -108.18255 | 26847 ft | 342 kts | 246° |
| 2026-04-25 18:25 | 38.65569 | -108.20961 | 26403 ft | 340 kts | 245° |
| 2026-04-25 18:25 | 38.64498 | -108.23602 | 25986 ft | 337 kts | 246° |
| 2026-04-25 18:25 | 38.63420 | -108.26268 | 25549 ft | 336 kts | 245° |
| 2026-04-25 18:25 | 38.62350 | -108.28913 | 25119 ft | 334 kts | 245° |
| 2026-04-25 18:26 | 38.61282 | -108.31553 | 24706 ft | 335 kts | 245° |
| 2026-04-25 18:26 | 38.60193 | -108.34239 | 24274 ft | 344 kts | 245° |
| 2026-04-25 18:26 | 38.59082 | -108.36977 | 23850 ft | 353 kts | 245° |
| 2026-04-25 18:26 | 38.57954 | -108.39755 | 23384 ft | 351 kts | 244° |
| 2026-04-25 18:27 | 38.56825 | -108.42528 | 22932 ft | 349 kts | 244° |
| 2026-04-25 18:27 | 38.55704 | -108.45279 | 22482 ft | 346 kts | 244° |
| 2026-04-25 18:27 | 38.54609 | -108.47966 | 22064 ft | 344 kts | 244° |
| 2026-04-25 18:27 | 38.53503 | -108.50677 | 21637 ft | 341 kts | 244° |
| 2026-04-25 18:28 | 38.52383 | -108.53344 | 21205 ft | 340 kts | 239° |
| 2026-04-25 18:28 | 38.50778 | -108.55547 | 20802 ft | 343 kts | 219° |
| 2026-04-25 18:28 | 38.48649 | -108.56975 | 20388 ft | 348 kts | 203° |
| 2026-04-25 18:29 | 38.43814 | -108.57172 | 19617 ft | 361 kts | 169° |
| 2026-04-25 18:29 | 38.41506 | -108.55836 | 19229 ft | 366 kts | 154° |
| 2026-04-25 18:30 | 38.35065 | -108.50647 | 17999 ft | 364 kts | 151° |
| 2026-04-25 18:30 | 38.32932 | -108.48905 | 17595 ft | 362 kts | 151° |
| 2026-04-25 18:30 | 38.30830 | -108.47204 | 17186 ft | 360 kts | 151° |
| 2026-04-25 18:30 | 38.28720 | -108.45509 | 16775 ft | 358 kts | 151° |
| 2026-04-25 18:31 | 38.26604 | -108.43818 | 16369 ft | 356 kts | 151° |
| 2026-04-25 18:31 | 38.24507 | -108.42148 | 15971 ft | 354 kts | 151° |
| 2026-04-25 18:31 | 38.22418 | -108.40488 | 15533 ft | 353 kts | 151° |
| 2026-04-25 18:31 | 38.20362 | -108.38855 | 15243 ft | 348 kts | 151° |
| 2026-04-25 18:32 | 38.18327 | -108.37238 | 15091 ft | 339 kts | 152° |
| 2026-04-25 18:32 | 38.16347 | -108.35668 | 14941 ft | 330 kts | 152° |
| 2026-04-25 18:32 | 38.14446 | -108.34160 | 14805 ft | 321 kts | 152° |
| 2026-04-25 18:32 | 38.12572 | -108.32673 | 14725 ft | 311 kts | 152° |
| 2026-04-25 18:33 | 38.10769 | -108.31244 | 14610 ft | 303 kts | 152° |
| 2026-04-25 18:33 | 38.08995 | -108.29844 | 14488 ft | 295 kts | 152° |
| 2026-04-25 18:33 | 38.07266 | -108.28480 | 14371 ft | 287 kts | 152° |
| 2026-04-25 18:33 | 38.05595 | -108.27160 | 14272 ft | 278 kts | 152° |
| 2026-04-25 18:34 | 38.03995 | -108.25831 | 14140 ft | 273 kts | 143° |
| 2026-04-25 18:34 | 38.02719 | -108.24097 | 13969 ft | 272 kts | 134° |
| 2026-04-25 18:34 | 38.01492 | -108.22276 | 13717 ft | 270 kts | 135° |
| 2026-04-25 18:34 | 38.00363 | -108.20361 | 13413 ft | 274 kts | 116° |
| 2026-04-25 18:35 | 37.99924 | -108.18005 | 13207 ft | 274 kts | 102° |
| 2026-04-25 18:35 | 37.99583 | -108.15613 | 12956 ft | 277 kts | 104° |
| 2026-04-25 18:35 | 37.99203 | -108.13227 | 12670 ft | 279 kts | 103° |
| 2026-04-25 18:35 | 37.98807 | -108.10796 | 12400 ft | 281 kts | 104° |
| 2026-04-25 18:36 | 37.98404 | -108.08360 | 12118 ft | 283 kts | 104° |
| 2026-04-25 18:36 | 37.97996 | -108.05885 | 11707 ft | 291 kts | 104° |
| 2026-04-25 18:36 | 37.97581 | -108.03370 | 11227 ft | 298 kts | 103° |
| 2026-04-25 18:36 | 37.97154 | -108.00795 | 10743 ft | 298 kts | 103° |
| 2026-04-25 18:37 | 37.96745 | -107.98295 | 10287 ft | 278 kts | 102° |
| 2026-04-25 18:37 | 37.96346 | -107.95983 | 9884 ft | 258 kts | 103° |
| 2026-04-25 18:37 | 37.95952 | -107.93859 | 9552 ft | 242 kts | 103° |
| 2026-04-25 18:37 | 37.95574 | -107.91777 | 9063 ft | 237 kts | 104° |
| 2026-04-25 18:38 | 37.95196 | -107.89986 | 9060 ft | 149 kts | 104° |
| 2026-04-25 18:38 | 37.95121 | -107.89458 | 9083 ft | 2 kts | 322° |
| 2026-04-25 18:38 | 37.95121 | -107.89461 | 9079 ft | 0 kts | 304° |
| 2026-04-25 18:38 | 37.95124 | -107.89467 | 9075 ft | 1 kts | 302° |
| 2026-04-25 18:39 | 37.95129 | -107.89475 | 9074 ft | 1 kts | 303° |
| 2026-04-25 18:39 | 37.95129 | -107.89486 | 9076 ft | 2 kts | 269° |
| 2026-04-25 18:39 | 37.95129 | -107.89496 | 9076 ft | 1 kts | 269° |
| 2026-04-25 18:39 | 37.95129 | -107.89506 | 9073 ft | 1 kts | 269° |
| 2026-04-25 18:40 | 37.95129 | -107.89515 | 9076 ft | 1 kts | 269° |
| 2026-04-25 18:40 | 37.95128 | -107.89525 | 9076 ft | 1 kts | 251° |
| 2026-04-25 18:40 | 37.95124 | -107.89534 | 9076 ft | 2 kts | 246° |
| 2026-04-25 18:40 | 37.95121 | -107.89543 | 9076 ft | 1 kts | 246° |
| 2026-04-25 18:41 | 37.95121 | -107.89545 | 9076 ft | 0 kts | 246° |
| 2026-04-25 18:41 | 37.95118 | -107.89553 | 9075 ft | 1 kts | 246° |
| 2026-04-25 18:41 | 37.95117 | -107.89555 | 9076 ft | 0 kts | 246° |
| 2026-04-25 18:41 | 37.95116 | -107.89558 | 9076 ft | 1 kts | 246° |
| 2026-04-25 18:42 | 37.95116 | -107.89559 | 9076 ft | 0 kts | 246° |
| 2026-04-25 18:42 | 37.95393 | -107.90095 | 9057 ft | 0 kts | 12° |
| 2026-04-25 18:43 | 37.95394 | -107.90094 | 9057 ft | 0 kts | 12° |